sensor_id;sensor_type;location;lat;lon;timestamp;P1;durP1;ratioP1;P2;durP2;ratioP2
40533;SDS011;26233;51.894;10.192;2023-04-28T00:01:09;3.30;;;1.90;;
40533;SDS011;26233;51.894;10.192;2023-04-28T00:03:36;1.87;;;1.77;;
40533;SDS011;26233;51.894;10.192;2023-04-28T00:06:03;2.40;;;2.17;;
40533;SDS011;26233;51.894;10.192;2023-04-28T00:08:32;2.23;;;2.00;;
40533;SDS011;26233;51.894;10.192;2023-04-28T00:10:59;1.90;;;1.70;;
40533;SDS011;26233;51.894;10.192;2023-04-28T00:13:26;3.73;;;1.97;;
40533;SDS011;26233;51.894;10.192;2023-04-28T00:15:55;2.43;;;2.20;;
40533;SDS011;26233;51.894;10.192;2023-04-28T00:18:24;2.33;;;2.13;;
40533;SDS011;26233;51.894;10.192;2023-04-28T00:20:51;2.20;;;2.00;;
40533;SDS011;26233;51.894;10.192;2023-04-28T00:23:19;2.23;;;1.97;;
40533;SDS011;26233;51.894;10.192;2023-04-28T00:25:50;2.83;;;2.00;;
40533;SDS011;26233;51.894;10.192;2023-04-28T00:28:18;2.10;;;1.90;;
40533;SDS011;26233;51.894;10.192;2023-04-28T00:30:45;1.73;;;1.63;;
40533;SDS011;26233;51.894;10.192;2023-04-28T00:33:12;3.63;;;2.00;;
40533;SDS011;26233;51.894;10.192;2023-04-28T00:35:40;2.30;;;2.10;;
40533;SDS011;26233;51.894;10.192;2023-04-28T00:38:07;2.20;;;1.97;;
40533;SDS011;26233;51.894;10.192;2023-04-28T00:40:34;2.30;;;2.10;;
40533;SDS011;26233;51.894;10.192;2023-04-28T00:43:04;2.60;;;2.20;;
40533;SDS011;26233;51.894;10.192;2023-04-28T00:45:31;2.20;;;2.00;;
40533;SDS011;26233;51.894;10.192;2023-04-28T00:47:58;3.10;;;2.37;;
40533;SDS011;26233;51.894;10.192;2023-04-28T00:50:26;2.97;;;2.40;;
40533;SDS011;26233;51.894;10.192;2023-04-28T00:52:53;3.83;;;2.23;;
40533;SDS011;26233;51.894;10.192;2023-04-28T00:55:23;2.70;;;2.50;;
40533;SDS011;26233;51.894;10.192;2023-04-28T00:57:54;3.20;;;2.60;;
40533;SDS011;26233;51.894;10.192;2023-04-28T01:00:24;2.97;;;2.27;;
40533;SDS011;26233;51.894;10.192;2023-04-28T01:02:51;3.00;;;2.70;;
40533;SDS011;26233;51.894;10.192;2023-04-28T01:05:18;3.17;;;2.60;;
40533;SDS011;26233;51.894;10.192;2023-04-28T01:07:46;2.87;;;2.63;;
40533;SDS011;26233;51.894;10.192;2023-04-28T01:10:13;3.20;;;2.57;;
40533;SDS011;26233;51.894;10.192;2023-04-28T01:12:40;3.67;;;2.43;;
40533;SDS011;26233;51.894;10.192;2023-04-28T01:15:08;2.57;;;2.37;;
40533;SDS011;26233;51.894;10.192;2023-04-28T01:17:43;3.97;;;2.73;;
40533;SDS011;26233;51.894;10.192;2023-04-28T01:20:11;2.60;;;2.33;;
40533;SDS011;26233;51.894;10.192;2023-04-28T01:22:38;3.67;;;3.20;;
40533;SDS011;26233;51.894;10.192;2023-04-28T01:25:07;2.73;;;2.50;;
40533;SDS011;26233;51.894;10.192;2023-04-28T01:27:34;3.53;;;2.50;;
40533;SDS011;26233;51.894;10.192;2023-04-28T01:30:01;3.03;;;2.53;;
40533;SDS011;26233;51.894;10.192;2023-04-28T01:32:29;2.50;;;2.30;;
40533;SDS011;26233;51.894;10.192;2023-04-28T01:34:55;2.97;;;2.67;;
40533;SDS011;26233;51.894;10.192;2023-04-28T01:37:22;2.80;;;2.50;;
40533;SDS011;26233;51.894;10.192;2023-04-28T01:39:49;2.97;;;2.70;;
40533;SDS011;26233;51.894;10.192;2023-04-28T01:42:18;3.47;;;2.50;;
40533;SDS011;26233;51.894;10.192;2023-04-28T01:44:45;3.30;;;2.47;;
40533;SDS011;26233;51.894;10.192;2023-04-28T01:47:12;3.40;;;2.60;;
40533;SDS011;26233;51.894;10.192;2023-04-28T01:49:39;4.10;;;2.50;;
40533;SDS011;26233;51.894;10.192;2023-04-28T01:52:06;2.73;;;2.53;;
40533;SDS011;26233;51.894;10.192;2023-04-28T01:54:33;3.80;;;2.60;;
40533;SDS011;26233;51.894;10.192;2023-04-28T01:57:00;2.90;;;2.70;;
40533;SDS011;26233;51.894;10.192;2023-04-28T01:59:29;2.53;;;2.33;;
40533;SDS011;26233;51.894;10.192;2023-04-28T02:01:56;2.60;;;2.40;;
40533;SDS011;26233;51.894;10.192;2023-04-28T02:04:23;2.70;;;2.50;;
40533;SDS011;26233;51.894;10.192;2023-04-28T02:06:50;3.00;;;2.70;;
40533;SDS011;26233;51.894;10.192;2023-04-28T02:09:17;2.57;;;2.37;;
40533;SDS011;26233;51.894;10.192;2023-04-28T02:11:44;3.23;;;2.93;;
40533;SDS011;26233;51.894;10.192;2023-04-28T02:14:11;2.73;;;2.53;;
40533;SDS011;26233;51.894;10.192;2023-04-28T02:16:40;2.97;;;2.70;;
40533;SDS011;26233;51.894;10.192;2023-04-28T02:19:07;3.80;;;2.83;;
40533;SDS011;26233;51.894;10.192;2023-04-28T02:21:34;3.60;;;2.67;;
40533;SDS011;26233;51.894;10.192;2023-04-28T02:24:01;3.53;;;2.77;;
40533;SDS011;26233;51.894;10.192;2023-04-28T02:26:28;2.90;;;2.60;;
40533;SDS011;26233;51.894;10.192;2023-04-28T02:28:55;3.07;;;2.77;;
40533;SDS011;26233;51.894;10.192;2023-04-28T02:31:22;3.13;;;2.83;;
40533;SDS011;26233;51.894;10.192;2023-04-28T02:33:51;2.90;;;2.57;;
40533;SDS011;26233;51.894;10.192;2023-04-28T02:36:18;2.63;;;2.43;;
40533;SDS011;26233;51.894;10.192;2023-04-28T02:38:45;2.97;;;2.67;;
40533;SDS011;26233;51.894;10.192;2023-04-28T02:41:12;3.10;;;2.90;;
40533;SDS011;26233;51.894;10.192;2023-04-28T02:43:40;2.87;;;2.67;;
40533;SDS011;26233;51.894;10.192;2023-04-28T02:46:07;3.00;;;2.70;;
40533;SDS011;26233;51.894;10.192;2023-04-28T02:48:35;2.93;;;2.67;;
40533;SDS011;26233;51.894;10.192;2023-04-28T02:51:03;3.40;;;3.10;;
40533;SDS011;26233;51.894;10.192;2023-04-28T02:53:31;3.20;;;2.90;;
40533;SDS011;26233;51.894;10.192;2023-04-28T02:55:58;3.30;;;3.00;;
40533;SDS011;26233;51.894;10.192;2023-04-28T02:58:26;3.20;;;2.90;;
40533;SDS011;26233;51.894;10.192;2023-04-28T03:00:53;3.90;;;3.10;;
40533;SDS011;26233;51.894;10.192;2023-04-28T03:03:20;4.50;;;3.27;;
40533;SDS011;26233;51.894;10.192;2023-04-28T03:05:49;4.93;;;3.20;;
40533;SDS011;26233;51.894;10.192;2023-04-28T03:08:18;2.90;;;2.70;;
40533;SDS011;26233;51.894;10.192;2023-04-28T03:10:46;3.30;;;2.73;;
40533;SDS011;26233;51.894;10.192;2023-04-28T03:13:13;2.93;;;2.73;;
40533;SDS011;26233;51.894;10.192;2023-04-28T03:15:40;3.00;;;2.67;;
40533;SDS011;26233;51.894;10.192;2023-04-28T03:18:07;2.90;;;2.70;;
40533;SDS011;26233;51.894;10.192;2023-04-28T03:20:34;3.17;;;2.87;;
40533;SDS011;26233;51.894;10.192;2023-04-28T03:23:01;4.73;;;2.87;;
40533;SDS011;26233;51.894;10.192;2023-04-28T03:25:29;3.43;;;2.80;;
40533;SDS011;26233;51.894;10.192;2023-04-28T03:27:56;3.10;;;2.80;;
40533;SDS011;26233;51.894;10.192;2023-04-28T03:30:23;3.13;;;2.83;;
40533;SDS011;26233;51.894;10.192;2023-04-28T03:32:50;3.63;;;2.90;;
40533;SDS011;26233;51.894;10.192;2023-04-28T03:35:17;2.70;;;2.50;;
40533;SDS011;26233;51.894;10.192;2023-04-28T03:37:45;2.90;;;2.70;;
40533;SDS011;26233;51.894;10.192;2023-04-28T03:40:12;3.13;;;2.83;;
40533;SDS011;26233;51.894;10.192;2023-04-28T03:42:41;3.33;;;3.03;;
40533;SDS011;26233;51.894;10.192;2023-04-28T03:45:08;3.17;;;2.97;;
40533;SDS011;26233;51.894;10.192;2023-04-28T03:47:36;3.43;;;3.10;;
40533;SDS011;26233;51.894;10.192;2023-04-28T03:50:03;3.63;;;3.03;;
40533;SDS011;26233;51.894;10.192;2023-04-28T03:52:31;2.80;;;2.60;;
40533;SDS011;26233;51.894;10.192;2023-04-28T03:54:58;3.70;;;2.60;;
40533;SDS011;26233;51.894;10.192;2023-04-28T03:57:29;3.20;;;2.90;;
40533;SDS011;26233;51.894;10.192;2023-04-28T03:59:57;3.33;;;2.93;;
40533;SDS011;26233;51.894;10.192;2023-04-28T04:02:24;3.30;;;2.60;;
40533;SDS011;26233;51.894;10.192;2023-04-28T04:04:51;3.00;;;2.80;;
40533;SDS011;26233;51.894;10.192;2023-04-28T04:07:18;3.03;;;2.47;;
40533;SDS011;26233;51.894;10.192;2023-04-28T04:09:45;3.00;;;2.70;;
40533;SDS011;26233;51.894;10.192;2023-04-28T04:12:13;4.47;;;2.90;;
40533;SDS011;26233;51.894;10.192;2023-04-28T04:14:40;2.83;;;2.63;;
40533;SDS011;26233;51.894;10.192;2023-04-28T04:17:08;2.73;;;2.53;;
40533;SDS011;26233;51.894;10.192;2023-04-28T04:19:35;2.80;;;2.60;;
40533;SDS011;26233;51.894;10.192;2023-04-28T04:22:02;3.03;;;2.73;;
40533;SDS011;26233;51.894;10.192;2023-04-28T04:24:29;2.97;;;2.73;;
40533;SDS011;26233;51.894;10.192;2023-04-28T04:26:56;3.07;;;2.80;;
40533;SDS011;26233;51.894;10.192;2023-04-28T04:29:23;3.77;;;3.37;;
40533;SDS011;26233;51.894;10.192;2023-04-28T04:31:50;3.43;;;3.13;;
40533;SDS011;26233;51.894;10.192;2023-04-28T04:34:19;5.43;;;3.10;;
40533;SDS011;26233;51.894;10.192;2023-04-28T04:36:46;3.77;;;3.37;;
40533;SDS011;26233;51.894;10.192;2023-04-28T04:39:13;3.70;;;3.40;;
40533;SDS011;26233;51.894;10.192;2023-04-28T04:41:40;4.87;;;3.63;;
40533;SDS011;26233;51.894;10.192;2023-04-28T04:44:07;4.13;;;3.50;;
40533;SDS011;26233;51.894;10.192;2023-04-28T04:46:34;7.33;;;5.70;;
40533;SDS011;26233;51.894;10.192;2023-04-28T04:49:01;5.33;;;4.83;;
40533;SDS011;26233;51.894;10.192;2023-04-28T04:51:29;5.07;;;3.93;;
40533;SDS011;26233;51.894;10.192;2023-04-28T04:53:56;6.27;;;4.23;;
40533;SDS011;26233;51.894;10.192;2023-04-28T04:56:23;4.03;;;3.70;;
40533;SDS011;26233;51.894;10.192;2023-04-28T04:58:50;4.47;;;4.00;;
40533;SDS011;26233;51.894;10.192;2023-04-28T05:01:17;4.57;;;3.47;;
40533;SDS011;26233;51.894;10.192;2023-04-28T05:03:44;5.13;;;3.37;;
40533;SDS011;26233;51.894;10.192;2023-04-28T05:06:11;3.93;;;3.30;;
40533;SDS011;26233;51.894;10.192;2023-04-28T05:08:40;3.87;;;3.57;;
40533;SDS011;26233;51.894;10.192;2023-04-28T05:11:07;3.63;;;3.33;;
40533;SDS011;26233;51.894;10.192;2023-04-28T05:13:34;4.00;;;3.67;;
40533;SDS011;26233;51.894;10.192;2023-04-28T05:16:01;3.40;;;3.10;;
40533;SDS011;26233;51.894;10.192;2023-04-28T05:18:28;3.73;;;3.30;;
40533;SDS011;26233;51.894;10.192;2023-04-28T05:20:55;3.50;;;3.20;;
40533;SDS011;26233;51.894;10.192;2023-04-28T05:23:22;3.30;;;3.00;;
40533;SDS011;26233;51.894;10.192;2023-04-28T05:25:51;3.97;;;3.20;;
40533;SDS011;26233;51.894;10.192;2023-04-28T05:28:21;4.10;;;3.50;;
40533;SDS011;26233;51.894;10.192;2023-04-28T05:30:48;3.93;;;3.57;;
40533;SDS011;26233;51.894;10.192;2023-04-28T05:33:15;10.43;;;6.65;;
40533;SDS011;26233;51.894;10.192;2023-04-28T05:35:44;16.63;;;12.45;;
40533;SDS011;26233;51.894;10.192;2023-04-28T05:38:11;16.03;;;11.60;;
40533;SDS011;26233;51.894;10.192;2023-04-28T05:40:38;12.23;;;8.90;;
40533;SDS011;26233;51.894;10.192;2023-04-28T05:43:07;11.90;;;9.90;;
40533;SDS011;26233;51.894;10.192;2023-04-28T05:45:34;7.97;;;7.17;;
40533;SDS011;26233;51.894;10.192;2023-04-28T05:48:01;6.03;;;5.43;;
40533;SDS011;26233;51.894;10.192;2023-04-28T05:50:29;5.40;;;4.63;;
40533;SDS011;26233;51.894;10.192;2023-04-28T05:52:56;4.93;;;4.37;;
40533;SDS011;26233;51.894;10.192;2023-04-28T05:55:25;4.35;;;3.53;;
40533;SDS011;26233;51.894;10.192;2023-04-28T05:57:52;4.07;;;3.50;;
40533;SDS011;26233;51.894;10.192;2023-04-28T06:00:20;3.65;;;3.25;;
40533;SDS011;26233;51.894;10.192;2023-04-28T06:02:48;4.07;;;3.63;;
40533;SDS011;26233;51.894;10.192;2023-04-28T06:05:15;4.55;;;3.78;;
40533;SDS011;26233;51.894;10.192;2023-04-28T06:07:42;3.47;;;3.17;;
40533;SDS011;26233;51.894;10.192;2023-04-28T06:10:09;4.60;;;3.50;;
40533;SDS011;26233;51.894;10.192;2023-04-28T06:12:37;3.97;;;3.63;;
40533;SDS011;26233;51.894;10.192;2023-04-28T06:15:04;3.75;;;3.35;;
40533;SDS011;26233;51.894;10.192;2023-04-28T06:17:33;4.05;;;3.22;;
40533;SDS011;26233;51.894;10.192;2023-04-28T06:20:01;4.10;;;3.58;;
40533;SDS011;26233;51.894;10.192;2023-04-28T06:22:29;3.75;;;3.45;;
40533;SDS011;26233;51.894;10.192;2023-04-28T06:24:56;4.45;;;3.88;;
40533;SDS011;26233;51.894;10.192;2023-04-28T06:27:32;3.80;;;3.50;;
40533;SDS011;26233;51.894;10.192;2023-04-28T06:29:59;4.28;;;3.45;;
40533;SDS011;26233;51.894;10.192;2023-04-28T06:32:26;4.03;;;3.30;;
40533;SDS011;26233;51.894;10.192;2023-04-28T06:34:54;4.63;;;3.97;;
40533;SDS011;26233;51.894;10.192;2023-04-28T06:37:21;3.80;;;3.40;;
40533;SDS011;26233;51.894;10.192;2023-04-28T06:39:50;4.55;;;3.50;;
40533;SDS011;26233;51.894;10.192;2023-04-28T06:42:17;3.60;;;3.30;;
40533;SDS011;26233;51.894;10.192;2023-04-28T06:44:44;3.72;;;3.25;;
40533;SDS011;26233;51.894;10.192;2023-04-28T06:47:11;4.18;;;3.70;;
40533;SDS011;26233;51.894;10.192;2023-04-28T06:49:38;4.35;;;3.97;;
40533;SDS011;26233;51.894;10.192;2023-04-28T06:52:09;4.53;;;4.00;;
40533;SDS011;26233;51.894;10.192;2023-04-28T06:54:38;4.55;;;3.97;;
40533;SDS011;26233;51.894;10.192;2023-04-28T06:57:05;6.07;;;4.50;;
40533;SDS011;26233;51.894;10.192;2023-04-28T06:59:32;5.35;;;4.85;;
40533;SDS011;26233;51.894;10.192;2023-04-28T07:01:59;6.72;;;4.97;;
40533;SDS011;26233;51.894;10.192;2023-04-28T07:04:27;5.38;;;4.80;;
40533;SDS011;26233;51.894;10.192;2023-04-28T07:06:54;6.32;;;5.30;;
40533;SDS011;26233;51.894;10.192;2023-04-28T07:09:22;5.38;;;4.88;;
40533;SDS011;26233;51.894;10.192;2023-04-28T07:11:49;6.32;;;5.13;;
40533;SDS011;26233;51.894;10.192;2023-04-28T07:14:16;6.05;;;4.85;;
40533;SDS011;26233;51.894;10.192;2023-04-28T07:16:43;7.25;;;5.22;;
40533;SDS011;26233;51.894;10.192;2023-04-28T07:19:10;5.82;;;4.57;;
40533;SDS011;26233;51.894;10.192;2023-04-28T07:21:37;5.32;;;4.82;;
40533;SDS011;26233;51.894;10.192;2023-04-28T07:24:04;5.85;;;4.70;;
40533;SDS011;26233;51.894;10.192;2023-04-28T07:26:33;7.10;;;5.22;;
40533;SDS011;26233;51.894;10.192;2023-04-28T07:29:01;6.75;;;5.22;;
40533;SDS011;26233;51.894;10.192;2023-04-28T07:31:28;6.03;;;5.47;;
40533;SDS011;26233;51.894;10.192;2023-04-28T07:33:55;6.90;;;5.65;;
40533;SDS011;26233;51.894;10.192;2023-04-28T07:36:22;5.85;;;5.25;;
40533;SDS011;26233;51.894;10.192;2023-04-28T07:38:50;5.97;;;5.38;;
40533;SDS011;26233;51.894;10.192;2023-04-28T07:41:17;5.97;;;5.38;;
40533;SDS011;26233;51.894;10.192;2023-04-28T07:43:47;6.38;;;5.00;;
40533;SDS011;26233;51.894;10.192;2023-04-28T07:46:14;6.18;;;5.60;;
40533;SDS011;26233;51.894;10.192;2023-04-28T07:48:42;7.22;;;5.45;;
40533;SDS011;26233;51.894;10.192;2023-04-28T07:51:09;6.82;;;5.40;;
40533;SDS011;26233;51.894;10.192;2023-04-28T07:53:36;6.20;;;4.97;;
40533;SDS011;26233;51.894;10.192;2023-04-28T07:56:03;6.50;;;5.38;;
40533;SDS011;26233;51.894;10.192;2023-04-28T07:58:30;5.80;;;5.20;;
40533;SDS011;26233;51.894;10.192;2023-04-28T08:00:59;6.05;;;5.10;;
40533;SDS011;26233;51.894;10.192;2023-04-28T08:03:26;5.32;;;4.90;;
40533;SDS011;26233;51.894;10.192;2023-04-28T08:05:53;5.85;;;5.22;;
40533;SDS011;26233;51.894;10.192;2023-04-28T08:08:20;5.82;;;5.32;;
40533;SDS011;26233;51.894;10.192;2023-04-28T08:10:47;5.13;;;4.47;;
40533;SDS011;26233;51.894;10.192;2023-04-28T08:13:14;5.88;;;5.07;;
40533;SDS011;26233;51.894;10.192;2023-04-28T08:15:41;5.88;;;5.32;;
40533;SDS011;26233;51.894;10.192;2023-04-28T08:18:10;6.85;;;4.93;;
40533;SDS011;26233;51.894;10.192;2023-04-28T08:20:37;5.82;;;4.80;;
40533;SDS011;26233;51.894;10.192;2023-04-28T08:23:04;4.78;;;4.38;;
40533;SDS011;26233;51.894;10.192;2023-04-28T08:25:31;4.55;;;4.15;;
40533;SDS011;26233;51.894;10.192;2023-04-28T08:27:58;5.93;;;4.47;;
40533;SDS011;26233;51.894;10.192;2023-04-28T08:30:27;5.47;;;4.90;;
40533;SDS011;26233;51.894;10.192;2023-04-28T08:32:54;5.15;;;4.63;;
40533;SDS011;26233;51.894;10.192;2023-04-28T08:35:23;7.35;;;4.97;;
40533;SDS011;26233;51.894;10.192;2023-04-28T08:37:50;5.38;;;4.85;;
40533;SDS011;26233;51.894;10.192;2023-04-28T08:40:17;6.30;;;5.30;;
40533;SDS011;26233;51.894;10.192;2023-04-28T08:42:45;8.57;;;5.45;;
40533;SDS011;26233;51.894;10.192;2023-04-28T08:45:13;5.57;;;5.07;;
40533;SDS011;26233;51.894;10.192;2023-04-28T08:47:40;5.75;;;5.25;;
40533;SDS011;26233;51.894;10.192;2023-04-28T08:50:11;5.97;;;5.40;;
40533;SDS011;26233;51.894;10.192;2023-04-28T08:52:40;6.18;;;5.38;;
40533;SDS011;26233;51.894;10.192;2023-04-28T08:55:09;6.32;;;5.45;;
40533;SDS011;26233;51.894;10.192;2023-04-28T08:57:38;6.22;;;5.63;;
40533;SDS011;26233;51.894;10.192;2023-04-28T09:00:09;5.70;;;5.20;;
40533;SDS011;26233;51.894;10.192;2023-04-28T09:02:37;6.03;;;5.32;;
40533;SDS011;26233;51.894;10.192;2023-04-28T09:05:06;5.90;;;5.30;;
40533;SDS011;26233;51.894;10.192;2023-04-28T09:07:34;5.75;;;5.15;;
40533;SDS011;26233;51.894;10.192;2023-04-28T09:10:15;6.07;;;5.50;;
40533;SDS011;26233;51.894;10.192;2023-04-28T09:12:46;5.20;;;4.70;;
40533;SDS011;26233;51.894;10.192;2023-04-28T09:15:27;5.15;;;4.65;;
40533;SDS011;26233;51.894;10.192;2023-04-28T09:17:56;5.03;;;4.50;;
40533;SDS011;26233;51.894;10.192;2023-04-28T09:20:24;5.60;;;4.80;;
40533;SDS011;26233;51.894;10.192;2023-04-28T09:22:52;5.70;;;5.20;;
40533;SDS011;26233;51.894;10.192;2023-04-28T09:25:22;5.80;;;5.30;;
40533;SDS011;26233;51.894;10.192;2023-04-28T09:27:51;5.57;;;5.07;;
40533;SDS011;26233;51.894;10.192;2023-04-28T09:30:18;5.72;;;5.22;;
40533;SDS011;26233;51.894;10.192;2023-04-28T09:32:47;6.07;;;5.25;;
40533;SDS011;26233;51.894;10.192;2023-04-28T09:35:39;6.90;;;5.38;;
40533;SDS011;26233;51.894;10.192;2023-04-28T09:38:07;5.60;;;5.05;;
40533;SDS011;26233;51.894;10.192;2023-04-28T09:43:26;5.55;;;4.60;;
40533;SDS011;26233;51.894;10.192;2023-04-28T09:45:56;5.07;;;4.57;;
40533;SDS011;26233;51.894;10.192;2023-04-28T09:48:26;5.32;;;4.70;;
40533;SDS011;26233;51.894;10.192;2023-04-28T09:50:58;5.30;;;4.82;;
40533;SDS011;26233;51.894;10.192;2023-04-28T09:53:27;5.78;;;4.95;;
40533;SDS011;26233;51.894;10.192;2023-04-28T09:55:56;5.43;;;4.18;;
40533;SDS011;26233;51.894;10.192;2023-04-28T09:58:25;4.68;;;4.28;;
40533;SDS011;26233;51.894;10.192;2023-04-28T10:00:54;5.53;;;4.40;;
40533;SDS011;26233;51.894;10.192;2023-04-28T10:03:23;5.57;;;4.78;;
40533;SDS011;26233;51.894;10.192;2023-04-28T10:05:51;4.90;;;4.28;;
40533;SDS011;26233;51.894;10.192;2023-04-28T10:08:19;4.80;;;4.32;;
40533;SDS011;26233;51.894;10.192;2023-04-28T10:10:48;6.28;;;4.53;;
40533;SDS011;26233;51.894;10.192;2023-04-28T10:13:20;4.18;;;3.88;;
40533;SDS011;26233;51.894;10.192;2023-04-28T10:15:48;5.38;;;4.55;;
40533;SDS011;26233;51.894;10.192;2023-04-28T10:18:15;3.97;;;3.67;;
40533;SDS011;26233;51.894;10.192;2023-04-28T10:20:43;4.80;;;4.40;;
40533;SDS011;26233;51.894;10.192;2023-04-28T10:23:22;4.55;;;4.03;;
40533;SDS011;26233;51.894;10.192;2023-04-28T10:26:09;4.57;;;4.18;;
40533;SDS011;26233;51.894;10.192;2023-04-28T10:28:44;4.78;;;4.25;;
40533;SDS011;26233;51.894;10.192;2023-04-28T10:31:12;5.43;;;4.43;;
40533;SDS011;26233;51.894;10.192;2023-04-28T10:33:41;5.95;;;4.68;;
40533;SDS011;26233;51.894;10.192;2023-04-28T10:36:09;5.60;;;4.78;;
40533;SDS011;26233;51.894;10.192;2023-04-28T10:41:35;5.68;;;5.07;;
40533;SDS011;26233;51.894;10.192;2023-04-28T10:47:10;5.82;;;4.97;;
40533;SDS011;26233;51.894;10.192;2023-04-28T10:52:46;5.57;;;5.07;;
40533;SDS011;26233;51.894;10.192;2023-04-28T10:55:27;6.10;;;5.25;;
40533;SDS011;26233;51.894;10.192;2023-04-28T11:03:54;5.32;;;4.82;;
40533;SDS011;26233;51.894;10.192;2023-04-28T11:06:27;5.15;;;4.65;;
40533;SDS011;26233;51.894;10.192;2023-04-28T11:08:57;6.38;;;5.22;;
40533;SDS011;26233;51.894;10.192;2023-04-28T11:11:26;6.45;;;4.90;;
40533;SDS011;26233;51.894;10.192;2023-04-28T11:13:54;5.55;;;4.47;;
40533;SDS011;26233;51.894;10.192;2023-04-28T11:16:58;5.18;;;4.68;;
40533;SDS011;26233;51.894;10.192;2023-04-28T11:19:27;6.03;;;5.13;;
40533;SDS011;26233;51.894;10.192;2023-04-28T11:21:57;5.68;;;5.18;;
40533;SDS011;26233;51.894;10.192;2023-04-28T11:24:26;6.05;;;5.47;;
40533;SDS011;26233;51.894;10.192;2023-04-28T11:26:55;6.68;;;5.95;;
40533;SDS011;26233;51.894;10.192;2023-04-28T11:29:29;6.57;;;5.97;;
40533;SDS011;26233;51.894;10.192;2023-04-28T11:31:59;6.28;;;5.78;;
40533;SDS011;26233;51.894;10.192;2023-04-28T11:34:26;7.10;;;6.40;;
40533;SDS011;26233;51.894;10.192;2023-04-28T11:36:53;9.30;;;8.50;;
40533;SDS011;26233;51.894;10.192;2023-04-28T11:39:24;7.30;;;6.63;;
40533;SDS011;26233;51.894;10.192;2023-04-28T11:41:55;7.07;;;6.47;;
40533;SDS011;26233;51.894;10.192;2023-04-28T11:44:24;6.30;;;5.80;;
40533;SDS011;26233;51.894;10.192;2023-04-28T11:46:54;6.75;;;6.05;;
40533;SDS011;26233;51.894;10.192;2023-04-28T11:49:26;6.47;;;5.90;;
40533;SDS011;26233;51.894;10.192;2023-04-28T11:51:54;6.07;;;5.50;;
40533;SDS011;26233;51.894;10.192;2023-04-28T11:54:25;6.07;;;5.57;;
40533;SDS011;26233;51.894;10.192;2023-04-28T11:56:55;6.25;;;5.68;;
40533;SDS011;26233;51.894;10.192;2023-04-28T11:59:24;5.68;;;5.18;;
40533;SDS011;26233;51.894;10.192;2023-04-28T12:01:53;6.60;;;5.63;;
40533;SDS011;26233;51.894;10.192;2023-04-28T12:04:27;5.45;;;4.95;;
40533;SDS011;26233;51.894;10.192;2023-04-28T12:06:57;5.85;;;5.35;;
40533;SDS011;26233;51.894;10.192;2023-04-28T12:09:27;5.82;;;5.32;;
40533;SDS011;26233;51.894;10.192;2023-04-28T12:11:54;5.05;;;4.63;;
40533;SDS011;26233;51.894;10.192;2023-04-28T12:14:23;5.68;;;5.05;;
40533;SDS011;26233;51.894;10.192;2023-04-28T12:16:51;6.30;;;5.38;;
40533;SDS011;26233;51.894;10.192;2023-04-28T12:19:18;5.72;;;5.22;;
40533;SDS011;26233;51.894;10.192;2023-04-28T12:22:00;5.93;;;5.30;;
40533;SDS011;26233;51.894;10.192;2023-04-28T12:24:29;6.47;;;4.75;;
40533;SDS011;26233;51.894;10.192;2023-04-28T12:27:16;4.97;;;4.57;;
40533;SDS011;26233;51.894;10.192;2023-04-28T12:29:47;4.90;;;4.50;;
40533;SDS011;26233;51.894;10.192;2023-04-28T12:32:15;4.68;;;4.28;;
40533;SDS011;26233;51.894;10.192;2023-04-28T12:34:44;5.10;;;4.60;;
40533;SDS011;26233;51.894;10.192;2023-04-28T12:37:13;5.25;;;4.82;;
40533;SDS011;26233;51.894;10.192;2023-04-28T12:39:41;4.95;;;4.55;;
40533;SDS011;26233;51.894;10.192;2023-04-28T12:42:08;4.70;;;4.30;;
40533;SDS011;26233;51.894;10.192;2023-04-28T12:44:36;4.70;;;4.30;;
40533;SDS011;26233;51.894;10.192;2023-04-28T12:47:05;4.53;;;4.13;;
40533;SDS011;26233;51.894;10.192;2023-04-28T12:49:34;3.72;;;3.40;;
40533;SDS011;26233;51.894;10.192;2023-04-28T12:52:02;3.15;;;2.95;;
40533;SDS011;26233;51.894;10.192;2023-04-28T12:54:32;3.53;;;3.22;;
40533;SDS011;26233;51.894;10.192;2023-04-28T12:56:59;4.40;;;4.00;;
40533;SDS011;26233;51.894;10.192;2023-04-28T12:59:27;4.60;;;4.20;;
40533;SDS011;26233;51.894;10.192;2023-04-28T13:01:57;4.38;;;3.97;;
40533;SDS011;26233;51.894;10.192;2023-04-28T13:04:25;5.20;;;4.70;;
40533;SDS011;26233;51.894;10.192;2023-04-28T13:06:52;5.45;;;5.05;;
40533;SDS011;26233;51.894;10.192;2023-04-28T13:09:19;5.70;;;5.20;;
40533;SDS011;26233;51.894;10.192;2023-04-28T13:11:47;6.05;;;4.93;;
40533;SDS011;26233;51.894;10.192;2023-04-28T13:14:15;5.68;;;5.15;;
40533;SDS011;26233;51.894;10.192;2023-04-28T13:16:42;6.65;;;5.97;;
40533;SDS011;26233;51.894;10.192;2023-04-28T13:19:09;5.78;;;5.28;;
40533;SDS011;26233;51.894;10.192;2023-04-28T13:21:38;6.28;;;5.68;;
40533;SDS011;26233;51.894;10.192;2023-04-28T13:24:06;6.38;;;5.78;;
40533;SDS011;26233;51.894;10.192;2023-04-28T13:26:33;5.95;;;5.45;;
40533;SDS011;26233;51.894;10.192;2023-04-28T13:29:03;6.85;;;5.90;;
40533;SDS011;26233;51.894;10.192;2023-04-28T13:31:32;5.78;;;5.28;;
40533;SDS011;26233;51.894;10.192;2023-04-28T13:33:59;5.50;;;5.00;;
40533;SDS011;26233;51.894;10.192;2023-04-28T13:36:28;4.82;;;4.43;;
40533;SDS011;26233;51.894;10.192;2023-04-28T13:38:55;6.10;;;4.93;;
40533;SDS011;26233;51.894;10.192;2023-04-28T13:41:22;4.90;;;4.50;;
40533;SDS011;26233;51.894;10.192;2023-04-28T13:43:50;5.55;;;5.05;;
40533;SDS011;26233;51.894;10.192;2023-04-28T13:46:19;5.85;;;5.25;;
40533;SDS011;26233;51.894;10.192;2023-04-28T13:48:46;6.60;;;5.82;;
40533;SDS011;26233;51.894;10.192;2023-04-28T13:51:14;5.75;;;5.20;;
40533;SDS011;26233;51.894;10.192;2023-04-28T13:53:41;5.43;;;4.95;;
40533;SDS011;26233;51.894;10.192;2023-04-28T13:56:08;5.63;;;5.10;;
40533;SDS011;26233;51.894;10.192;2023-04-28T13:58:36;5.13;;;4.72;;
40533;SDS011;26233;51.894;10.192;2023-04-28T14:01:03;4.70;;;4.30;;
40533;SDS011;26233;51.894;10.192;2023-04-28T14:03:33;5.13;;;4.63;;
40533;SDS011;26233;51.894;10.192;2023-04-28T14:06:00;5.10;;;4.70;;
40533;SDS011;26233;51.894;10.192;2023-04-28T14:08:28;4.78;;;4.30;;
40533;SDS011;26233;51.894;10.192;2023-04-28T14:10:55;5.07;;;4.65;;
40533;SDS011;26233;51.894;10.192;2023-04-28T14:13:22;4.70;;;4.30;;
40533;SDS011;26233;51.894;10.192;2023-04-28T14:15:50;5.32;;;4.90;;
40533;SDS011;26233;51.894;10.192;2023-04-28T14:18:18;6.03;;;5.43;;
40533;SDS011;26233;51.894;10.192;2023-04-28T14:20:46;5.35;;;4.93;;
40533;SDS011;26233;51.894;10.192;2023-04-28T14:23:14;5.50;;;5.00;;
40533;SDS011;26233;51.894;10.192;2023-04-28T14:25:41;5.35;;;4.95;;
40533;SDS011;26233;51.894;10.192;2023-04-28T14:28:08;5.82;;;5.32;;
40533;SDS011;26233;51.894;10.192;2023-04-28T14:30:35;5.90;;;5.40;;
40533;SDS011;26233;51.894;10.192;2023-04-28T14:33:02;6.60;;;6.00;;
40533;SDS011;26233;51.894;10.192;2023-04-28T14:35:30;6.53;;;5.93;;
40533;SDS011;26233;51.894;10.192;2023-04-28T14:38:00;7.28;;;6.63;;
40533;SDS011;26233;51.894;10.192;2023-04-28T14:40:28;6.80;;;6.25;;
40533;SDS011;26233;51.894;10.192;2023-04-28T14:42:55;7.50;;;6.88;;
40533;SDS011;26233;51.894;10.192;2023-04-28T14:45:22;7.82;;;6.28;;
40533;SDS011;26233;51.894;10.192;2023-04-28T14:47:50;6.68;;;6.18;;
40533;SDS011;26233;51.894;10.192;2023-04-28T14:50:17;7.13;;;6.45;;
40533;SDS011;26233;51.894;10.192;2023-04-28T14:52:45;7.13;;;6.53;;
40533;SDS011;26233;51.894;10.192;2023-04-28T14:55:13;7.38;;;6.50;;
40533;SDS011;26233;51.894;10.192;2023-04-28T14:57:40;7.28;;;6.57;;